Time;durP1;ratioP1;P1;durP2;ratioP2;P2;SDS_P1;SDS_P2;PMS_P1;PMS_P2;Temp;Humidity;BMP_temperature;BMP_pressure;BME280_temperature;BME280_humidity;BME280_pressure;Samples;Min_cycle;Max_cycle;Signal;HPM_P1;HPM_P2
2024/04/11 00:00:39;;;;;;;9.20;2.25;;;;;;;;;;5366951;26;20387;-67
2024/04/11 00:03:05;;;;;;;8.75;2.80;;;;;;;;;;5367107;26;20011;-68
2024/04/11 00:05:31;;;;;;;7.63;2.08;;;;;;;;;;5358297;26;20011;-67
2024/04/11 00:07:57;;;;;;;4.10;2.42;;;;;;;;;;5366459;26;20008;-67
2024/04/11 00:10:24;;;;;;;5.43;2.45;;;;;;;;;;5364694;26;20011;-68
2024/04/11 00:12:50;;;;;;;9.50;2.85;;;;;;;;;;5363943;26;20000;-68
2024/04/11 00:15:16;;;;;;;9.35;3.05;;;;;;;;;;5367423;26;20012;-68
2024/04/11 00:17:44;;;;;;;11.85;3.03;;;;;;;;;;5357861;26;20000;-68
2024/04/11 00:20:10;;;;;;;8.32;2.58;;;;;;;;;;5363409;26;20004;-68
2024/04/11 00:22:36;;;;;;;6.93;2.40;;;;;;;;;;5358439;26;20004;-68
2024/04/11 00:25:02;;;;;;;13.35;3.33;;;;;;;;;;5361675;26;20001;-68
2024/04/11 00:27:29;;;;;;;9.73;2.75;;;;;;;;;;5368592;26;20475;-67
2024/04/11 00:29:55;;;;;;;7.72;2.47;;;;;;;;;;5356988;26;20073;-68
2024/04/11 00:32:24;;;;;;;8.07;2.88;;;;;;;;;;5364251;26;20349;-70
2024/04/11 00:34:50;;;;;;;8.63;3.05;;;;;;;;;;5357696;26;20792;-68
2024/04/11 00:37:16;;;;;;;13.60;4.47;;;;;;;;;;5365830;26;20004;-68
2024/04/11 00:39:42;;;;;;;7.10;2.60;;;;;;;;;;5360739;26;20400;-69
2024/04/11 00:42:09;;;;;;;4.82;2.33;;;;;;;;;;5352884;26;20392;-68
2024/04/11 00:44:39;;;;;;;8.70;2.72;;;;;;;;;;5365448;26;20004;-68
2024/04/11 00:47:09;;;;;;;9.27;3.22;;;;;;;;;;5368090;26;20061;-68
2024/04/11 00:49:36;;;;;;;7.60;2.97;;;;;;;;;;5357843;26;20000;-69
2024/04/11 00:52:03;;;;;;;9.18;3.88;;;;;;;;;;5356554;26;20037;-68
2024/04/11 00:54:29;;;;;;;7.57;3.08;;;;;;;;;;5368058;26;20005;-67
2024/04/11 00:56:59;;;;;;;11.35;3.30;;;;;;;;;;5361977;26;20015;-68
2024/04/11 00:59:27;;;;;;;10.70;2.90;;;;;;;;;;5359895;26;20000;-69
2024/04/11 01:01:53;;;;;;;8.77;2.83;;;;;;;;;;5358477;26;20500;-69
2024/04/11 01:04:19;;;;;;;6.68;2.53;;;;;;;;;;5358500;26;20012;-71
2024/04/11 01:09:32;;;;;;;10.88;3.03;;;;;;;;;;5353950;26;20018;-68
2024/04/11 01:11:59;;;;;;;4.00;2.05;;;;;;;;;;5355361;26;20000;-68
2024/04/11 01:14:26;;;;;;;6.38;2.60;;;;;;;;;;5353061;26;20339;-69
2024/04/11 01:16:52;;;;;;;7.07;2.45;;;;;;;;;;5359371;26;20032;-68
2024/04/11 01:19:19;;;;;;;7.47;2.55;;;;;;;;;;5359266;26;20008;-68
2024/04/11 01:21:45;;;;;;;5.38;2.22;;;;;;;;;;5363806;26;20006;-69
2024/04/11 01:24:13;;;;;;;3.10;2.03;;;;;;;;;;5364749;26;19996;-68
2024/04/11 01:26:40;;;;;;;11.27;2.63;;;;;;;;;;5364096;26;20007;-69
2024/04/11 01:29:07;;;;;;;9.70;2.42;;;;;;;;;;5364860;26;20019;-68
2024/04/11 01:31:34;;;;;;;7.25;2.40;;;;;;;;;;5365024;26;20007;-68
2024/04/11 01:34:00;;;;;;;6.57;2.33;;;;;;;;;;5372821;26;20004;-69
2024/04/11 01:36:26;;;;;;;10.82;2.55;;;;;;;;;;5358814;26;20628;-69
2024/04/11 01:38:53;;;;;;;8.55;2.65;;;;;;;;;;5377352;26;20004;-68
2024/04/11 01:41:19;;;;;;;6.72;2.80;;;;;;;;;;5365053;26;20015;-68
2024/04/11 01:43:45;;;;;;;6.90;2.75;;;;;;;;;;5366005;26;20450;-70
2024/04/11 01:46:18;;;;;;;10.15;2.60;;;;;;;;;;5360718;26;20492;-70
2024/04/11 01:48:47;;;;;;;8.55;3.28;;;;;;;;;;5363852;26;20483;-69
2024/04/11 01:51:14;;;;;;;8.20;3.03;;;;;;;;;;5366572;26;20003;-68
2024/04/11 01:53:40;;;;;;;8.93;2.65;;;;;;;;;;5388135;26;20017;-69
2024/04/11 01:56:09;;;;;;;8.43;2.90;;;;;;;;;;5362280;26;20339;-69
2024/04/11 01:58:35;;;;;;;8.32;2.85;;;;;;;;;;5363869;26;20084;-69
2024/04/11 02:01:09;;;;;;;4.47;2.60;;;;;;;;;;5362656;26;20012;-67
2024/04/11 02:03:41;;;;;;;13.20;3.78;;;;;;;;;;5359757;26;20536;-68
2024/04/11 02:06:08;;;;;;;5.07;2.85;;;;;;;;;;5356627;26;19993;-69
2024/04/11 02:08:35;;;;;;;10.10;3.13;;;;;;;;;;5360740;26;20007;-69
2024/04/11 02:11:01;;;;;;;8.32;2.75;;;;;;;;;;5364762;26;20018;-68
2024/04/11 02:13:28;;;;;;;9.27;3.38;;;;;;;;;;5360246;26;20020;-69
2024/04/11 02:15:54;;;;;;;10.80;3.05;;;;;;;;;;5361368;26;20345;-69
2024/04/11 02:18:21;;;;;;;9.07;3.63;;;;;;;;;;5362051;26;19996;-69
2024/04/11 02:20:53;;;;;;;10.68;2.75;;;;;;;;;;5355359;26;20008;-69
2024/04/11 02:23:19;;;;;;;16.15;3.72;;;;;;;;;;5363869;26;20007;-68
2024/04/11 02:25:46;;;;;;;13.18;3.78;;;;;;;;;;5358460;26;20008;-69
2024/04/11 02:28:13;;;;;;;19.08;3.40;;;;;;;;;;5358826;26;20478;-69
2024/04/11 02:30:39;;;;;;;9.57;2.75;;;;;;;;;;5355380;26;20001;-70
2024/04/11 02:33:06;;;;;;;7.90;3.13;;;;;;;;;;5351322;26;20001;-68
2024/04/11 02:35:32;;;;;;;8.05;3.25;;;;;;;;;;5355326;26;20505;-69
2024/04/11 02:37:58;;;;;;;10.77;3.55;;;;;;;;;;5365914;26;20171;-68
2024/04/11 02:40:25;;;;;;;9.05;3.50;;;;;;;;;;5360741;26;20330;-67
2024/04/11 02:42:53;;;;;;;9.57;3.25;;;;;;;;;;5356983;26;20319;-69
2024/04/11 02:45:21;;;;;;;11.15;3.63;;;;;;;;;;5361180;26;20016;-69
2024/04/11 02:47:48;;;;;;;7.55;3.50;;;;;;;;;;5364993;26;20008;-68
2024/04/11 02:50:15;;;;;;;12.63;3.17;;;;;;;;;;5367935;26;20479;-67
2024/04/11 02:52:44;;;;;;;6.60;3.50;;;;;;;;;;5359728;26;20008;-69
2024/04/11 02:55:15;;;;;;;17.88;4.47;;;;;;;;;;5362599;26;20066;-67
2024/04/11 02:57:42;;;;;;;11.60;4.13;;;;;;;;;;5364341;26;20012;-68
2024/04/11 03:00:11;;;;;;;9.90;3.85;;;;;;;;;;5361565;26;20511;-69
2024/04/11 03:02:37;;;;;;;13.13;4.65;;;;;;;;;;5356487;26;20087;-67
2024/04/11 03:05:05;;;;;;;12.82;3.03;;;;;;;;;;5365863;26;20014;-68
2024/04/11 03:07:32;;;;;;;11.18;3.35;;;;;;;;;;5361587;26;20447;-68
2024/04/11 03:09:58;;;;;;;16.33;3.72;;;;;;;;;;5360195;26;19993;-67
2024/04/11 03:12:24;;;;;;;8.55;3.22;;;;;;;;;;5363948;26;20000;-69
2024/04/11 03:14:50;;;;;;;10.27;3.25;;;;;;;;;;5365790;26;20000;-68
2024/04/11 03:17:17;;;;;;;10.75;3.72;;;;;;;;;;5359877;26;20000;-68
2024/04/11 03:19:45;;;;;;;5.30;2.40;;;;;;;;;;5373010;26;20477;-70
2024/04/11 03:22:11;;;;;;;9.63;2.97;;;;;;;;;;5369427;26;20016;-67
2024/04/11 03:24:38;;;;;;;9.50;2.63;;;;;;;;;;5368893;26;20446;-67
2024/04/11 03:27:04;;;;;;;6.78;2.85;;;;;;;;;;5370742;26;20000;-67
2024/04/11 03:29:30;;;;;;;10.02;3.28;;;;;;;;;;5357891;26;20058;-67
2024/04/11 03:31:57;;;;;;;6.10;3.00;;;;;;;;;;5357404;26;20004;-68
2024/04/11 03:34:23;;;;;;;12.68;3.28;;;;;;;;;;5365243;26;20394;-67
2024/04/11 03:36:49;;;;;;;9.90;3.03;;;;;;;;;;5372066;26;19992;-67
2024/04/11 03:39:16;;;;;;;14.90;3.95;;;;;;;;;;5376800;26;20007;-68
2024/04/11 03:41:49;;;;;;;7.65;3.63;;;;;;;;;;5373674;26;20035;-68
2024/04/11 03:44:15;;;;;;;9.82;2.78;;;;;;;;;;5357486;26;20011;-67
2024/04/11 03:46:42;;;;;;;7.85;3.03;;;;;;;;;;5360576;26;20627;-68
2024/04/11 03:49:08;;;;;;;9.27;2.40;;;;;;;;;;5366315;26;20000;-69
2024/04/11 03:51:39;;;;;;;14.25;3.03;;;;;;;;;;5367005;26;19996;-68
2024/04/11 03:54:10;;;;;;;7.60;3.00;;;;;;;;;;5369867;26;20005;-67
2024/04/11 03:56:36;;;;;;;8.02;3.15;;;;;;;;;;5369135;26;20000;-69
2024/04/11 03:59:06;;;;;;;8.50;3.53;;;;;;;;;;5370292;26;20371;-69
2024/04/11 04:01:33;;;;;;;8.05;3.33;;;;;;;;;;5366147;26;20000;-69
2024/04/11 04:04:03;;;;;;;14.55;3.10;;;;;;;;;;5376910;26;20008;-68
2024/04/11 04:06:30;;;;;;;17.75;3.17;;;;;;;;;;5395532;26;20369;-68
2024/04/11 04:08:57;;;;;;;9.75;3.58;;;;;;;;;;5377692;26;20008;-69
2024/04/11 04:11:23;;;;;;;8.38;2.45;;;;;;;;;;5371893;26;20589;-68
2024/04/11 04:13:50;;;;;;;14.32;3.90;;;;;;;;;;5355897;26;20469;-68
2024/04/11 04:16:16;;;;;;;10.90;3.83;;;;;;;;;;5373711;26;20047;-68
2024/04/11 04:18:47;;;;;;;5.03;2.97;;;;;;;;;;5368796;26;19996;-69
2024/04/11 04:21:14;;;;;;;9.45;3.10;;;;;;;;;;5360782;26;20922;-67
2024/04/11 04:23:42;;;;;;;9.05;3.63;;;;;;;;;;5357713;26;20005;-67
2024/04/11 04:26:09;;;;;;;10.07;2.95;;;;;;;;;;5365781;26;20014;-67
2024/04/11 04:28:39;;;;;;;16.83;4.00;;;;;;;;;;5363844;26;20012;-67
2024/04/11 04:31:15;;;;;;;11.77;2.95;;;;;;;;;;5355681;26;20321;-67
2024/04/11 04:33:40;;;;;;;;;;;;;;;;;;5365719;26;20689;-67
2024/04/11 04:36:07;;;;;;;11.77;3.60;;;;;;;;;;5357655;26;20165;-68
2024/04/11 04:38:34;;;;;;;8.05;2.45;;;;;;;;;;5366193;26;20008;-67
2024/04/11 04:41:01;;;;;;;12.73;2.45;;;;;;;;;;5375183;26;20009;-67
2024/04/11 04:43:29;;;;;;;7.25;2.58;;;;;;;;;;5357780;26;20016;-68
2024/04/11 04:46:00;;;;;;;8.57;2.42;;;;;;;;;;5378218;26;20008;-68
2024/04/11 04:48:27;;;;;;;9.90;3.00;;;;;;;;;;5366823;26;20012;-67
2024/04/11 04:50:53;;;;;;;16.30;3.42;;;;;;;;;;5370354;26;20004;-68
2024/04/11 04:53:20;;;;;;;11.00;3.08;;;;;;;;;;5374658;26;20007;-68
2024/04/11 04:55:46;;;;;;;10.15;2.70;;;;;;;;;;5365699;26;20001;-68
2024/04/11 04:58:12;;;;;;;9.85;2.40;;;;;;;;;;5358868;26;20467;-69
2024/04/11 05:00:39;;;;;;;10.63;2.85;;;;;;;;;;5369739;26;20019;-68
2024/04/11 05:03:08;;;;;;;9.30;2.78;;;;;;;;;;5350660;26;20000;-69
2024/04/11 05:05:36;;;;;;;9.13;2.47;;;;;;;;;;5356315;26;20011;-69
2024/04/11 05:08:07;;;;;;;5.07;2.15;;;;;;;;;;5362030;26;20542;-68
2024/04/11 05:10:34;;;;;;;8.32;2.65;;;;;;;;;;5368774;26;20000;-68
2024/04/11 05:13:01;;;;;;;12.38;4.53;;;;;;;;;;5364684;26;19993;-68
2024/04/11 05:15:28;;;;;;;6.60;3.38;;;;;;;;;;5371586;26;20515;-68
2024/04/11 05:17:55;;;;;;;9.32;2.55;;;;;;;;;;5368291;26;20009;-69
2024/04/11 05:20:27;;;;;;;11.07;2.75;;;;;;;;;;5364561;26;20008;-69
2024/04/11 05:22:56;;;;;;;3.95;2.22;;;;;;;;;;5371538;26;20000;-68
2024/04/11 05:25:22;;;;;;;9.73;3.35;;;;;;;;;;5368857;26;20046;-68
2024/04/11 05:27:49;;;;;;;11.35;2.67;;;;;;;;;;5380471;26;20004;-67
2024/04/11 05:30:15;;;;;;;17.13;3.92;;;;;;;;;;5363001;26;20003;-66
2024/04/11 05:32:46;;;;;;;10.50;2.55;;;;;;;;;;5368417;26;20000;-67
2024/04/11 05:35:14;;;;;;;4.82;2.78;;;;;;;;;;5379751;26;20016;-68
2024/04/11 05:37:41;;;;;;;12.90;2.72;;;;;;;;;;5364680;26;19997;-67
2024/04/11 05:40:08;;;;;;;14.35;3.13;;;;;;;;;;5396059;26;19997;-67
2024/04/11 05:42:44;;;;;;;12.38;2.70;;;;;;;;;;5365847;26;20001;-69
2024/04/11 05:45:11;;;;;;;10.05;3.15;;;;;;;;;;5368367;26;20020;-69
2024/04/11 05:47:37;;;;;;;9.43;3.25;;;;;;;;;;5357364;26;20742;-69
2024/04/11 05:50:05;;;;;;;14.15;3.33;;;;;;;;;;5349389;26;20007;-68
2024/04/11 05:52:31;;;;;;;11.18;3.38;;;;;;;;;;5356036;26;20445;-69
2024/04/11 05:54:58;;;;;;;11.93;2.88;;;;;;;;;;5350230;26;20333;-69
2024/04/11 05:57:24;;;;;;;6.72;2.38;;;;;;;;;;5345001;26;20005;-69
2024/04/11 05:59:51;;;;;;;10.48;2.97;;;;;;;;;;5361212;26;20324;-68
2024/04/11 06:02:18;;;;;;;13.82;3.15;;;;;;;;;;5353111;26;20023;-69
2024/04/11 06:04:45;;;;;;;12.30;3.00;;;;;;;;;;5375427;26;20011;-68
2024/04/11 06:07:12;;;;;;;7.80;2.97;;;;;;;;;;5359983;26;19997;-68
2024/04/11 06:09:39;;;;;;;13.73;3.47;;;;;;;;;;5358449;26;20004;-69
2024/04/11 06:12:05;;;;;;;18.35;3.28;;;;;;;;;;5350932;26;20036;-69
2024/04/11 06:14:32;;;;;;;8.65;2.83;;;;;;;;;;5344143;26;20009;-68
2024/04/11 06:16:58;;;;;;;6.05;2.60;;;;;;;;;;5340527;26;20011;-69
2024/04/11 06:19:25;;;;;;;14.07;3.78;;;;;;;;;;5370849;26;20003;-69
2024/04/11 06:21:54;;;;;;;7.65;3.00;;;;;;;;;;5364036;26;20554;-70
2024/04/11 06:24:21;;;;;;;11.77;3.50;;;;;;;;;;5360465;26;20015;-68
2024/04/11 06:26:47;;;;;;;9.35;3.35;;;;;;;;;;5346752;26;19992;-67
2024/04/11 06:29:19;;;;;;;7.43;2.95;;;;;;;;;;5359042;26;20001;-70
2024/04/11 06:31:46;;;;;;;10.10;2.95;;;;;;;;;;5363122;26;20072;-69
2024/04/11 06:34:13;;;;;;;13.32;2.65;;;;;;;;;;5367907;26;20008;-68
2024/04/11 06:36:40;;;;;;;6.75;3.17;;;;;;;;;;5375372;26;20536;-68
2024/04/11 06:39:09;;;;;;;12.00;2.70;;;;;;;;;;5361593;26;20018;-70
2024/04/11 06:41:36;;;;;;;7.28;2.08;;;;;;;;;;5365868;26;20065;-68
2024/04/11 06:44:03;;;;;;;13.02;2.75;;;;;;;;;;5353312;26;20008;-68
2024/04/11 06:46:29;;;;;;;7.80;2.60;;;;;;;;;;5366597;26;20008;-70
2024/04/11 06:48:58;;;;;;;8.02;2.60;;;;;;;;;;5352352;26;19997;-69
2024/04/11 06:51:25;;;;;;;6.03;2.92;;;;;;;;;;5380619;26;20448;-69
2024/04/11 06:53:52;;;;;;;9.60;3.22;;;;;;;;;;5364442;26;20001;-69
2024/04/11 06:56:22;;;;;;;6.57;2.80;;;;;;;;;;5362115;26;20666;-68
2024/04/11 06:58:49;;;;;;;9.90;2.95;;;;;;;;;;5359816;26;20027;-69
2024/04/11 07:01:15;;;;;;;7.80;3.35;;;;;;;;;;5369363;26;20040;-68
2024/04/11 07:03:49;;;;;;;4.03;2.80;;;;;;;;;;5370899;26;20422;-68
2024/04/11 07:06:22;;;;;;;10.02;3.28;;;;;;;;;;5361403;26;19996;-69
2024/04/11 07:08:58;;;;;;;6.05;3.25;;;;;;;;;;5364620;26;20334;-69
2024/04/11 07:11:32;;;;;;;8.63;2.58;;;;;;;;;;5366665;26;20452;-69
2024/04/11 07:13:59;;;;;;;9.63;2.45;;;;;;;;;;5357391;26;20019;-68
2024/04/11 07:16:29;;;;;;;12.00;2.80;;;;;;;;;;5369811;26;20441;-62
2024/04/11 07:18:55;;;;;;;8.75;3.67;;;;;;;;;;5346670;26;20009;-62
2024/04/11 07:21:34;;;;;;;19.45;2.97;;;;;;;;;;5346392;26;20081;-62
2024/04/11 07:24:00;;;;;;;6.03;2.40;;;;;;;;;;5349264;26;19997;-62
2024/04/11 07:26:30;;;;;;;4.05;2.67;;;;;;;;;;5358706;26;20011;-62
2024/04/11 07:28:59;;;;;;;11.25;2.97;;;;;;;;;;5357728;26;20001;-61
2024/04/11 07:31:25;;;;;;;13.93;3.70;;;;;;;;;;5358836;26;20013;-61
2024/04/11 07:33:52;;;;;;;8.70;2.90;;;;;;;;;;5354960;26;20000;-62
2024/04/11 07:36:22;;;;;;;10.20;2.33;;;;;;;;;;5337325;26;20012;-62
2024/04/11 07:38:49;;;;;;;6.40;3.10;;;;;;;;;;5348100;26;19996;-62
2024/04/11 07:41:19;;;;;;;11.82;2.92;;;;;;;;;;5352479;26;20343;-62
2024/04/11 07:43:55;;;;;;;17.13;3.22;;;;;;;;;;5343496;26;20010;-62
2024/04/11 07:46:28;;;;;;;13.35;3.60;;;;;;;;;;5334825;26;20333;-62
2024/04/11 07:48:55;;;;;;;12.80;4.47;;;;;;;;;;5347574;26;20419;-62
2024/04/11 07:51:21;;;;;;;3.67;2.22;;;;;;;;;;5351858;26;20051;-62
2024/04/11 07:53:48;;;;;;;5.95;2.45;;;;;;;;;;5337987;26;20005;-62
2024/04/11 07:56:19;;;;;;;3.55;1.90;;;;;;;;;;5337693;26;20441;-62
2024/04/11 07:58:46;;;;;;;8.95;2.25;;;;;;;;;;5344521;26;19996;-62
2024/04/11 08:01:14;;;;;;;6.15;2.42;;;;;;;;;;5345109;26;20001;-62
2024/04/11 08:03:41;;;;;;;4.15;2.30;;;;;;;;;;5342993;26;19997;-62
2024/04/11 08:06:10;;;;;;;10.70;3.13;;;;;;;;;;5344632;26;20031;-62
2024/04/11 08:08:40;;;;;;;7.05;2.92;;;;;;;;;;5348670;26;20007;-62
2024/04/11 08:11:06;;;;;;;7.00;2.92;;;;;;;;;;5371972;26;19996;-62
2024/04/11 08:13:36;;;;;;;11.80;3.40;;;;;;;;;;5335427;26;20464;-62
2024/04/11 08:16:04;;;;;;;10.90;3.25;;;;;;;;;;5356869;26;19996;-62
2024/04/11 08:18:31;;;;;;;10.90;2.42;;;;;;;;;;5350338;26;20020;-62
2024/04/11 08:20:57;;;;;;;6.80;3.17;;;;;;;;;;5363119;26;20029;-62
2024/04/11 08:23:25;;;;;;;16.30;2.80;;;;;;;;;;5339752;26;20019;-62
2024/04/11 08:25:55;;;;;;;11.77;3.60;;;;;;;;;;5357539;26;20446;-61
2024/04/11 08:28:21;;;;;;;11.95;3.00;;;;;;;;;;5350716;26;20046;-62
2024/04/11 08:30:48;;;;;;;7.82;2.47;;;;;;;;;;5351694;26;20012;-61
2024/04/11 08:33:14;;;;;;;12.30;3.80;;;;;;;;;;5348538;26;20297;-61
2024/04/11 08:35:44;;;;;;;12.65;3.10;;;;;;;;;;5362909;26;20073;-62
2024/04/11 08:38:12;;;;;;;4.18;2.95;;;;;;;;;;5346069;26;19992;-62
2024/04/11 08:40:44;;;;;;;5.35;2.50;;;;;;;;;;5340186;26;20445;-61
2024/04/11 08:43:10;;;;;;;8.23;2.35;;;;;;;;;;5351052;26;20094;-62
2024/04/11 08:45:37;;;;;;;6.57;2.80;;;;;;;;;;5334822;26;20040;-61
2024/04/11 08:48:04;;;;;;;7.82;2.25;;;;;;;;;;5354484;26;20017;-62
2024/04/11 08:50:30;;;;;;;7.28;2.92;;;;;;;;;;5342891;26;19997;-62
2024/04/11 08:52:57;;;;;;;10.90;2.40;;;;;;;;;;5354088;26;20023;-62
2024/04/11 08:55:23;;;;;;;9.57;2.65;;;;;;;;;;5334472;26;20015;-63
2024/04/11 08:57:51;;;;;;;10.43;2.40;;;;;;;;;;5352855;26;20004;-62
2024/04/11 09:00:21;;;;;;;6.78;2.17;;;;;;;;;;5344042;26;20378;-62
2024/04/11 09:02:52;;;;;;;6.30;1.98;;;;;;;;;;5357022;26;20406;-62
2024/04/11 09:05:18;;;;;;;4.68;2.40;;;;;;;;;;5350794;26;20348;-62
2024/04/11 09:07:47;;;;;;;6.38;2.67;;;;;;;;;;5346780;26;20027;-62
2024/04/11 09:10:13;;;;;;;8.25;2.30;;;;;;;;;;5323962;26;20429;-62
2024/04/11 09:12:48;;;;;;;8.13;2.58;;;;;;;;;;5353024;26;20481;-62
2024/04/11 09:15:18;;;;;;;13.65;3.08;;;;;;;;;;5340200;26;19993;-62
2024/04/11 09:17:45;;;;;;;10.98;3.58;;;;;;;;;;5336459;26;20070;-62
2024/04/11 09:20:19;;;;;;;5.97;2.40;;;;;;;;;;5331449;26;20577;-61
2024/04/11 09:22:48;;;;;;;5.10;2.70;;;;;;;;;;5345676;26;20000;-62
2024/04/11 09:25:14;;;;;;;9.52;2.63;;;;;;;;;;5349409;26;20043;-62
2024/04/11 09:27:50;;;;;;;18.27;3.75;;;;;;;;;;5347325;26;20523;-63
2024/04/11 09:30:20;;;;;;;3.63;2.10;;;;;;;;;;5337739;26;20037;-62
2024/04/11 09:32:48;;;;;;;7.35;2.22;;;;;;;;;;5361230;26;20011;-62
2024/04/11 09:35:16;;;;;;;13.63;2.65;;;;;;;;;;5354294;26;19992;-62
2024/04/11 09:37:44;;;;;;;6.43;2.20;;;;;;;;;;5364566;26;20011;-69
2024/04/11 09:40:11;;;;;;;4.35;2.30;;;;;;;;;;5359990;26;19996;-69
2024/04/11 09:42:43;;;;;;;6.25;1.90;;;;;;;;;;5351731;26;20709;-69
2024/04/11 09:45:18;;;;;;;7.40;2.75;;;;;;;;;;5351474;26;20443;-69
2024/04/11 09:47:47;;;;;;;;;;;;;;;;;;5365631;26;20449;-69
2024/04/11 09:50:16;;;;;;;11.55;2.75;;;;;;;;;;5346269;26;19926;-70
2024/04/11 09:52:45;;;;;;;7.85;2.50;;;;;;;;;;5371049;26;20086;-70
2024/04/11 09:55:15;;;;;;;5.35;2.05;;;;;;;;;;5348506;26;20012;-70
2024/04/11 09:57:46;;;;;;;13.90;3.00;;;;;;;;;;5371572;26;20443;-68
2024/04/11 10:02:59;;;;;;;8.27;2.72;;;;;;;;;;5372745;26;20206;-68
2024/04/11 10:05:36;;;;;;;7.78;2.42;;;;;;;;;;5353453;26;20451;-68
2024/04/11 10:08:02;;;;;;;8.80;3.05;;;;;;;;;;5354972;26;19996;-69
2024/04/11 10:10:29;;;;;;;4.90;2.08;;;;;;;;;;5350852;26;20004;-69
2024/04/11 10:13:00;;;;;;;6.93;2.35;;;;;;;;;;5364556;26;20538;-68
2024/04/11 10:15:29;;;;;;;7.38;2.45;;;;;;;;;;5360380;26;20000;-68
2024/04/11 10:18:15;;;;;;;4.22;2.33;;;;;;;;;;5345021;26;21291;-68
2024/04/11 10:21:01;;;;;;;4.60;2.38;;;;;;;;;;5360283;26;20327;-68
2024/04/11 10:23:32;;;;;;;8.50;2.10;;;;;;;;;;5351252;26;20004;-68
2024/04/11 10:26:02;;;;;;;7.90;2.50;;;;;;;;;;5350599;26;20403;-69
2024/04/11 10:28:37;;;;;;;5.50;2.30;;;;;;;;;;5349350;26;20008;-68
2024/04/11 10:31:08;;;;;;;9.27;2.22;;;;;;;;;;5348609;26;20348;-67
2024/04/11 10:33:44;;;;;;;14.63;2.88;;;;;;;;;;5358712;26;20489;-68
2024/04/11 10:36:13;;;;;;;9.07;2.63;;;;;;;;;;5368657;26;20448;-68
2024/04/11 10:38:41;;;;;;;10.10;1.92;;;;;;;;;;5362610;26;20007;-68
2024/04/11 10:41:08;;;;;;;6.78;2.85;;;;;;;;;;5351994;26;20386;-68
2024/04/11 10:43:36;;;;;;;12.02;2.75;;;;;;;;;;5356304;26;20804;-68
2024/04/11 10:46:08;;;;;;;11.85;2.40;;;;;;;;;;5363176;26;20071;-68
2024/04/11 10:48:40;;;;;;;6.68;2.28;;;;;;;;;;5366372;26;20605;-69
2024/04/11 10:51:10;;;;;;;7.07;2.88;;;;;;;;;;5362644;26;20332;-68
2024/04/11 10:53:42;;;;;;;6.90;2.55;;;;;;;;;;5365551;26;20000;-69
2024/04/11 10:56:22;;;;;;;6.32;2.15;;;;;;;;;;5353152;26;20073;-68
2024/04/11 10:58:53;;;;;;;6.38;2.47;;;;;;;;;;5379707;26;20000;-68
2024/04/11 11:01:26;;;;;;;5.38;2.30;;;;;;;;;;5357453;26;20360;-68
2024/04/11 11:03:57;;;;;;;4.07;1.83;;;;;;;;;;5351088;26;20024;-68
2024/04/11 11:06:25;;;;;;;7.50;2.20;;;;;;;;;;5349883;26;20013;-68
2024/04/11 11:09:10;;;;;;;13.40;2.70;;;;;;;;;;5359047;26;20008;-69
2024/04/11 11:11:39;;;;;;;;;;;;;;;;;;5354682;26;19992;-69
2024/04/11 11:14:06;;;;;;;6.90;2.53;;;;;;;;;;5340837;26;20313;-68
2024/04/11 11:16:33;;;;;;;5.38;3.13;;;;;;;;;;5361701;26;20392;-69
2024/04/11 11:18:59;;;;;;;6.85;2.30;;;;;;;;;;5364536;26;20595;-68
2024/04/11 11:21:25;;;;;;;7.00;3.25;;;;;;;;;;5361027;26;20249;-68
2024/04/11 11:23:59;;;;;;;5.55;2.38;;;;;;;;;;5355923;26;19996;-68
2024/04/11 11:26:35;;;;;;;5.72;2.78;;;;;;;;;;5357983;26;20454;-68
2024/04/11 11:29:09;;;;;;;6.65;2.67;;;;;;;;;;5354802;26;20001;-69
2024/04/11 11:31:40;;;;;;;10.38;2.80;;;;;;;;;;5360926;26;20413;-69
2024/04/11 11:34:10;;;;;;;6.32;2.40;;;;;;;;;;5362300;26;20357;-68
2024/04/11 11:36:37;;;;;;;5.40;3.00;;;;;;;;;;5357562;26;20075;-68
2024/04/11 11:39:04;;;;;;;4.55;2.28;;;;;;;;;;5376578;26;20014;-69
2024/04/11 11:41:37;;;;;;;7.28;3.25;;;;;;;;;;5365956;26;20018;-69
2024/04/11 11:44:17;;;;;;;12.20;3.05;;;;;;;;;;5367401;26;20031;-69
2024/04/11 11:46:44;;;;;;;11.50;3.65;;;;;;;;;;5352471;26;20050;-70
2024/04/11 11:49:13;;;;;;;6.20;2.85;;;;;;;;;;5370093;26;20023;-68
2024/04/11 11:51:40;;;;;;;6.90;2.58;;;;;;;;;;5357036;26;20019;-68
2024/04/11 11:54:12;;;;;;;4.47;2.45;;;;;;;;;;5363510;26;20047;-69
2024/04/11 11:56:42;;;;;;;8.57;2.58;;;;;;;;;;5372000;26;20005;-68
2024/04/11 11:59:11;;;;;;;8.10;2.72;;;;;;;;;;5358196;26;19997;-68
2024/04/11 12:01:51;;;;;;;8.13;2.80;;;;;;;;;;5329888;26;20001;-68
2024/04/11 12:04:17;;;;;;;7.07;2.53;;;;;;;;;;5359280;26;20011;-68
2024/04/11 12:06:48;;;;;;;10.23;2.92;;;;;;;;;;5364559;26;20459;-69
2024/04/11 12:09:14;;;;;;;10.75;2.78;;;;;;;;;;5390520;26;20768;-68
2024/04/11 12:12:07;;;;;;;4.43;2.50;;;;;;;;;;5367149;26;20459;-69
2024/04/11 12:14:42;;;;;;;11.73;2.95;;;;;;;;;;5364285;26;20011;-68
2024/04/11 12:17:14;;;;;;;5.60;2.38;;;;;;;;;;5362953;26;20024;-69
2024/04/11 12:19:41;;;;;;;7.60;2.78;;;;;;;;;;5358829;26;20517;-62
2024/04/11 12:22:18;;;;;;;6.78;2.50;;;;;;;;;;5343691;26;20016;-63
2024/04/11 12:24:45;;;;;;;8.63;2.38;;;;;;;;;;5350457;26;19997;-62
2024/04/11 12:27:14;;;;;;;6.93;2.97;;;;;;;;;;5347709;26;20012;-62
2024/04/11 12:29:42;;;;;;;5.50;2.97;;;;;;;;;;5354391;26;20266;-62
2024/04/11 12:32:09;;;;;;;6.47;2.65;;;;;;;;;;5368220;26;20377;-62
2024/04/11 12:34:37;;;;;;;4.22;2.00;;;;;;;;;;5357871;26;19996;-62
2024/04/11 12:37:16;;;;;;;7.85;2.47;;;;;;;;;;5344026;26;20019;-62
2024/04/11 12:39:53;;;;;;;4.07;2.30;;;;;;;;;;5347503;26;20004;-62
2024/04/11 12:42:22;;;;;;;9.43;2.47;;;;;;;;;;5348753;26;20818;-62
2024/04/11 12:44:48;;;;;;;8.60;2.50;;;;;;;;;;5360522;26;20023;-68
2024/04/11 12:47:14;;;;;;;6.88;2.70;;;;;;;;;;5355870;26;20871;-68
2024/04/11 12:49:48;;;;;;;8.80;2.53;;;;;;;;;;5346163;26;19993;-68
2024/04/11 12:52:24;;;;;;;5.07;2.25;;;;;;;;;;5368878;26;20081;-68
2024/04/11 12:54:51;;;;;;;5.75;1.70;;;;;;;;;;5362685;26;20004;-69
2024/04/11 12:57:17;;;;;;;4.32;2.15;;;;;;;;;;5356766;26;20009;-68
2024/04/11 12:59:46;;;;;;;5.07;2.33;;;;;;;;;;5360731;26;20621;-68
2024/04/11 13:02:19;;;;;;;7.75;1.90;;;;;;;;;;5364293;26;20620;-69
2024/04/11 13:04:49;;;;;;;3.97;2.22;;;;;;;;;;5350459;26;20332;-69
2024/04/11 13:07:19;;;;;;;3.72;3.08;;;;;;;;;;5354941;26;20011;-69
2024/04/11 13:09:53;;;;;;;6.95;2.05;;;;;;;;;;5345476;26;19996;-70
2024/04/11 13:12:20;;;;;;;5.03;1.75;;;;;;;;;;5341219;26;20015;-68
2024/04/11 13:17:33;;;;;;;1.98;1.77;;;;;;;;;;5353040;26;20501;-69
2024/04/11 13:20:11;;;;;;;5.07;1.77;;;;;;;;;;5366505;26;20444;-69
2024/04/11 13:22:41;;;;;;;5.88;2.00;;;;;;;;;;5343861;26;20000;-68
2024/04/11 13:25:17;;;;;;;2.85;2.03;;;;;;;;;;5361939;26;20001;-69
2024/04/11 13:27:44;;;;;;;4.95;2.00;;;;;;;;;;5343969;26;20003;-68
2024/04/11 13:30:13;;;;;;;1.70;1.60;;;;;;;;;;5347691;26;20053;-69
2024/04/11 13:32:41;;;;;;;13.35;2.33;;;;;;;;;;5340778;26;20099;-69
2024/04/11 13:35:11;;;;;;;6.20;1.90;;;;;;;;;;5356508;26;20448;-69
2024/04/11 13:37:38;;;;;;;3.00;1.50;;;;;;;;;;5367711;26;20015;-67
2024/04/11 13:42:52;;;;;;;;;;;;;;;;;;5368880;26;20007;-67
2024/04/11 13:45:24;;;;;;;1.77;1.60;;;;;;;;;;5372713;26;19933;-68
2024/04/11 13:48:03;;;;;;;1.50;1.40;;;;;;;;;;5403479;26;20019;-67
2024/04/11 13:50:54;;;;;;;4.57;1.50;;;;;;;;;;5380185;26;20712;-62
2024/04/11 13:53:27;;;;;;;1.80;1.70;;;;;;;;;;5377864;26;20608;-62
2024/04/11 13:55:55;;;;;;;1.80;1.70;;;;;;;;;;5365873;26;20010;-63
2024/04/11 13:58:21;;;;;;;1.75;1.60;;;;;;;;;;5371972;26;21249;-62
2024/04/11 14:01:02;;;;;;;1.52;1.42;;;;;;;;;;5374225;26;20003;-62
2024/04/11 14:08:42;;;;;;;4.05;1.50;;;;;;;;;;5371713;26;20004;-68
2024/04/11 14:11:15;;;;;;;3.58;1.60;;;;;;;;;;5378917;26;20054;-68
2024/04/11 14:13:43;;;;;;;2.30;1.30;;;;;;;;;;5389582;26;20579;-68
2024/04/11 14:16:10;;;;;;;2.05;1.60;;;;;;;;;;5381785;26;20022;-69
2024/04/11 14:18:36;;;;;;;1.63;1.33;;;;;;;;;;5382645;26;20000;-69
2024/04/11 14:21:18;;;;;;;1.48;1.38;;;;;;;;;;5379333;26;20019;-67
2024/04/11 14:23:53;;;;;;;2.17;1.35;;;;;;;;;;5374691;26;20015;-68
2024/04/11 14:27:06;;;;;;;2.03;1.52;;;;;;;;;;5368253;26;20003;-67
2024/04/11 14:29:16;;;;;;;1.50;1.40;;;;;;;;;;5385523;26;20477;-69
2024/04/11 14:31:48;;;;;;;1.60;1.50;;;;;;;;;;5382477;26;20480;-65
2024/04/11 14:37:09;;;;;;;1.40;1.30;;;;;;;;;;5372882;26;20019;-67
2024/04/11 14:39:37;;;;;;;1.20;1.20;;;;;;;;;;5373221;26;20007;-67
2024/04/11 14:42:07;;;;;;;1.20;1.20;;;;;;;;;;5378525;26;20347;-67
2024/04/11 14:44:36;;;;;;;1.20;1.10;;;;;;;;;;5371522;26;20470;-67
2024/04/11 14:47:21;;;;;;;2.25;1.45;;;;;;;;;;5380060;26;19995;-67
2024/04/11 14:49:59;;;;;;;1.13;1.13;;;;;;;;;;5365611;26;20000;-68
2024/04/11 14:52:31;;;;;;;2.08;1.15;;;;;;;;;;5374147;26;19996;-68
2024/04/11 14:55:09;;;;;;;1.10;1.10;;;;;;;;;;5366307;26;19999;-68
2024/04/11 14:57:37;;;;;;;1.58;1.48;;;;;;;;;;5353275;26;19996;-68
2024/04/11 15:02:56;;;;;;;1.30;1.20;;;;;;;;;;5356102;26;20019;-67
2024/04/11 15:05:22;;;;;;;1.27;1.17;;;;;;;;;;5372254;26;20024;-68
2024/04/11 15:07:48;;;;;;;1.10;1.10;;;;;;;;;;5372389;26;20007;-68
2024/04/11 15:10:17;;;;;;;1.25;1.25;;;;;;;;;;5377513;26;20727;-68
2024/04/11 15:12:44;;;;;;;1.48;1.38;;;;;;;;;;5374689;26;20000;-68